sensor_id;sensor_type;location;lat;lon;timestamp;P1;durP1;ratioP1;P2;durP2;ratioP2
3549;SDS011;45572;48.804;8.330;2023-08-06T00:00:22;4.00;;;3.20;;
3549;SDS011;45572;48.804;8.330;2023-08-06T00:02:50;5.43;;;3.03;;
3549;SDS011;45572;48.804;8.330;2023-08-06T00:05:18;5.90;;;2.65;;
3549;SDS011;45572;48.804;8.330;2023-08-06T00:07:47;4.68;;;2.70;;
3549;SDS011;45572;48.804;8.330;2023-08-06T00:10:16;6.03;;;4.00;;
3549;SDS011;45572;48.804;8.330;2023-08-06T00:12:44;5.05;;;2.97;;
3549;SDS011;45572;48.804;8.330;2023-08-06T00:15:12;7.63;;;2.90;;
3549;SDS011;45572;48.804;8.330;2023-08-06T00:17:40;5.72;;;3.20;;
3549;SDS011;45572;48.804;8.330;2023-08-06T00:20:08;7.00;;;3.25;;
3549;SDS011;45572;48.804;8.330;2023-08-06T00:22:36;6.45;;;3.08;;
3549;SDS011;45572;48.804;8.330;2023-08-06T00:25:05;5.68;;;2.90;;
3549;SDS011;45572;48.804;8.330;2023-08-06T00:27:34;3.67;;;2.88;;
3549;SDS011;45572;48.804;8.330;2023-08-06T00:30:02;4.30;;;3.15;;
3549;SDS011;45572;48.804;8.330;2023-08-06T00:32:30;6.63;;;2.80;;
3549;SDS011;45572;48.804;8.330;2023-08-06T00:34:59;4.25;;;2.85;;
3549;SDS011;45572;48.804;8.330;2023-08-06T00:37:26;5.45;;;3.08;;
3549;SDS011;45572;48.804;8.330;2023-08-06T00:39:54;4.22;;;2.45;;
3549;SDS011;45572;48.804;8.330;2023-08-06T00:42:22;3.05;;;2.30;;
3549;SDS011;45572;48.804;8.330;2023-08-06T00:44:51;6.20;;;2.67;;
3549;SDS011;45572;48.804;8.330;2023-08-06T00:47:18;3.25;;;1.95;;
3549;SDS011;45572;48.804;8.330;2023-08-06T00:49:46;3.30;;;2.55;;
3549;SDS011;45572;48.804;8.330;2023-08-06T00:52:14;4.60;;;2.40;;
3549;SDS011;45572;48.804;8.330;2023-08-06T00:54:42;4.22;;;2.30;;
3549;SDS011;45572;48.804;8.330;2023-08-06T00:57:10;5.68;;;2.28;;
3549;SDS011;45572;48.804;8.330;2023-08-06T00:59:39;5.25;;;2.63;;
3549;SDS011;45572;48.804;8.330;2023-08-06T01:02:08;4.47;;;1.95;;
3549;SDS011;45572;48.804;8.330;2023-08-06T01:04:36;5.38;;;2.70;;
3549;SDS011;45572;48.804;8.330;2023-08-06T01:07:06;3.10;;;1.92;;
3549;SDS011;45572;48.804;8.330;2023-08-06T01:09:49;5.35;;;2.33;;
3549;SDS011;45572;48.804;8.330;2023-08-06T01:12:25;5.25;;;2.03;;
3549;SDS011;45572;48.804;8.330;2023-08-06T01:15:00;3.08;;;1.98;;
3549;SDS011;45572;48.804;8.330;2023-08-06T01:17:36;4.15;;;1.90;;
3549;SDS011;45572;48.804;8.330;2023-08-06T01:20:05;3.90;;;2.60;;
3549;SDS011;45572;48.804;8.330;2023-08-06T01:22:35;4.72;;;2.50;;
3549;SDS011;45572;48.804;8.330;2023-08-06T01:25:02;3.95;;;2.17;;
3549;SDS011;45572;48.804;8.330;2023-08-06T01:27:33;5.20;;;2.30;;
3549;SDS011;45572;48.804;8.330;2023-08-06T01:30:11;5.45;;;2.50;;
3549;SDS011;45572;48.804;8.330;2023-08-06T01:32:42;3.92;;;2.50;;
3549;SDS011;45572;48.804;8.330;2023-08-06T01:35:12;4.43;;;2.08;;
3549;SDS011;45572;48.804;8.330;2023-08-06T01:37:43;3.67;;;2.17;;
3549;SDS011;45572;48.804;8.330;2023-08-06T01:40:12;3.50;;;1.90;;
3549;SDS011;45572;48.804;8.330;2023-08-06T01:42:41;2.63;;;1.85;;
3549;SDS011;45572;48.804;8.330;2023-08-06T01:45:09;5.80;;;2.40;;
3549;SDS011;45572;48.804;8.330;2023-08-06T01:47:37;3.15;;;2.25;;
3549;SDS011;45572;48.804;8.330;2023-08-06T01:50:05;2.88;;;1.88;;
3549;SDS011;45572;48.804;8.330;2023-08-06T01:52:33;4.80;;;2.20;;
3549;SDS011;45572;48.804;8.330;2023-08-06T01:55:02;4.00;;;2.05;;
3549;SDS011;45572;48.804;8.330;2023-08-06T01:57:31;3.17;;;1.45;;
3549;SDS011;45572;48.804;8.330;2023-08-06T01:59:58;4.63;;;2.53;;
3549;SDS011;45572;48.804;8.330;2023-08-06T02:02:40;10.80;;;2.47;;
3549;SDS011;45572;48.804;8.330;2023-08-06T02:05:08;3.10;;;1.63;;
3549;SDS011;45572;48.804;8.330;2023-08-06T02:07:38;6.40;;;1.88;;
3549;SDS011;45572;48.804;8.330;2023-08-06T02:10:08;4.20;;;2.35;;
3549;SDS011;45572;48.804;8.330;2023-08-06T02:12:35;3.15;;;1.95;;
3549;SDS011;45572;48.804;8.330;2023-08-06T02:15:04;2.13;;;1.60;;
3549;SDS011;45572;48.804;8.330;2023-08-06T02:17:32;6.32;;;1.70;;
3549;SDS011;45572;48.804;8.330;2023-08-06T02:20:00;5.68;;;2.30;;
3549;SDS011;45572;48.804;8.330;2023-08-06T02:22:28;2.28;;;1.80;;
3549;SDS011;45572;48.804;8.330;2023-08-06T02:24:56;2.22;;;1.35;;
3549;SDS011;45572;48.804;8.330;2023-08-06T02:27:25;4.43;;;2.25;;
3549;SDS011;45572;48.804;8.330;2023-08-06T02:29:52;3.28;;;1.73;;
3549;SDS011;45572;48.804;8.330;2023-08-06T02:32:20;5.07;;;3.22;;
3549;SDS011;45572;48.804;8.330;2023-08-06T02:34:48;7.60;;;1.65;;
3549;SDS011;45572;48.804;8.330;2023-08-06T02:37:16;6.38;;;1.80;;
3549;SDS011;45572;48.804;8.330;2023-08-06T02:39:44;4.50;;;2.03;;
3549;SDS011;45572;48.804;8.330;2023-08-06T02:42:12;4.68;;;1.90;;
3549;SDS011;45572;48.804;8.330;2023-08-06T02:44:41;2.90;;;1.63;;
3549;SDS011;45572;48.804;8.330;2023-08-06T02:47:09;4.55;;;1.58;;
3549;SDS011;45572;48.804;8.330;2023-08-06T02:49:37;5.30;;;1.70;;
3549;SDS011;45572;48.804;8.330;2023-08-06T02:52:05;2.95;;;1.58;;
3549;SDS011;45572;48.804;8.330;2023-08-06T02:54:33;5.28;;;2.10;;
3549;SDS011;45572;48.804;8.330;2023-08-06T02:57:01;9.00;;;1.55;;
3549;SDS011;45572;48.804;8.330;2023-08-06T02:59:31;4.80;;;2.08;;
3549;SDS011;45572;48.804;8.330;2023-08-06T03:02:19;5.20;;;2.08;;
3549;SDS011;45572;48.804;8.330;2023-08-06T03:04:55;3.08;;;1.60;;
3549;SDS011;45572;48.804;8.330;2023-08-06T03:07:27;3.40;;;2.22;;
3549;SDS011;45572;48.804;8.330;2023-08-06T03:10:01;4.25;;;1.45;;
3549;SDS011;45572;48.804;8.330;2023-08-06T03:12:29;2.88;;;1.42;;
3549;SDS011;45572;48.804;8.330;2023-08-06T03:14:59;2.05;;;1.20;;
3549;SDS011;45572;48.804;8.330;2023-08-06T03:17:28;3.75;;;1.52;;
3549;SDS011;45572;48.804;8.330;2023-08-06T03:19:56;4.63;;;1.50;;
3549;SDS011;45572;48.804;8.330;2023-08-06T03:22:24;4.07;;;1.40;;
3549;SDS011;45572;48.804;8.330;2023-08-06T03:24:52;3.05;;;1.15;;
3549;SDS011;45572;48.804;8.330;2023-08-06T03:27:23;5.43;;;1.10;;
3549;SDS011;45572;48.804;8.330;2023-08-06T03:29:51;2.45;;;0.93;;
3549;SDS011;45572;48.804;8.330;2023-08-06T03:32:22;4.45;;;1.40;;
3549;SDS011;45572;48.804;8.330;2023-08-06T03:34:52;1.75;;;1.00;;
3549;SDS011;45572;48.804;8.330;2023-08-06T03:37:22;3.90;;;1.33;;
3549;SDS011;45572;48.804;8.330;2023-08-06T03:39:50;2.38;;;1.17;;
3549;SDS011;45572;48.804;8.330;2023-08-06T03:42:18;2.30;;;0.93;;
3549;SDS011;45572;48.804;8.330;2023-08-06T03:44:46;2.33;;;0.95;;
3549;SDS011;45572;48.804;8.330;2023-08-06T03:47:14;3.15;;;1.25;;
3549;SDS011;45572;48.804;8.330;2023-08-06T03:49:43;3.05;;;1.60;;
3549;SDS011;45572;48.804;8.330;2023-08-06T03:52:14;3.80;;;1.15;;
3549;SDS011;45572;48.804;8.330;2023-08-06T03:54:41;1.70;;;1.02;;
3549;SDS011;45572;48.804;8.330;2023-08-06T03:57:10;1.30;;;0.95;;
3549;SDS011;45572;48.804;8.330;2023-08-06T03:59:38;3.85;;;1.88;;
3549;SDS011;45572;48.804;8.330;2023-08-06T04:02:07;1.48;;;0.80;;
3549;SDS011;45572;48.804;8.330;2023-08-06T04:04:35;3.85;;;1.33;;
3549;SDS011;45572;48.804;8.330;2023-08-06T04:07:03;1.20;;;0.80;;
3549;SDS011;45572;48.804;8.330;2023-08-06T04:09:33;1.60;;;0.82;;
3549;SDS011;45572;48.804;8.330;2023-08-06T04:12:02;1.23;;;0.80;;
3549;SDS011;45572;48.804;8.330;2023-08-06T04:14:31;3.45;;;1.00;;
3549;SDS011;45572;48.804;8.330;2023-08-06T04:16:58;2.85;;;1.00;;
3549;SDS011;45572;48.804;8.330;2023-08-06T04:19:26;1.60;;;1.02;;
3549;SDS011;45572;48.804;8.330;2023-08-06T04:21:54;1.88;;;0.65;;
3549;SDS011;45572;48.804;8.330;2023-08-06T04:24:22;2.88;;;0.95;;
3549;SDS011;45572;48.804;8.330;2023-08-06T04:26:51;2.67;;;1.10;;
3549;SDS011;45572;48.804;8.330;2023-08-06T04:29:18;3.45;;;1.13;;
3549;SDS011;45572;48.804;8.330;2023-08-06T04:31:47;1.70;;;0.90;;
3549;SDS011;45572;48.804;8.330;2023-08-06T04:34:15;1.88;;;0.80;;
3549;SDS011;45572;48.804;8.330;2023-08-06T04:36:43;5.90;;;1.60;;
3549;SDS011;45572;48.804;8.330;2023-08-06T04:39:11;2.40;;;1.48;;
3549;SDS011;45572;48.804;8.330;2023-08-06T04:41:39;3.03;;;1.00;;
3549;SDS011;45572;48.804;8.330;2023-08-06T04:44:09;2.20;;;1.50;;
3549;SDS011;45572;48.804;8.330;2023-08-06T04:46:38;3.35;;;1.58;;
3549;SDS011;45572;48.804;8.330;2023-08-06T04:49:05;3.10;;;1.00;;
3549;SDS011;45572;48.804;8.330;2023-08-06T04:51:33;3.70;;;1.63;;
3549;SDS011;45572;48.804;8.330;2023-08-06T04:54:01;2.65;;;1.17;;
3549;SDS011;45572;48.804;8.330;2023-08-06T04:56:29;3.50;;;1.02;;
3549;SDS011;45572;48.804;8.330;2023-08-06T04:58:58;2.17;;;1.98;;
3549;SDS011;45572;48.804;8.330;2023-08-06T05:01:27;1.88;;;0.85;;
3549;SDS011;45572;48.804;8.330;2023-08-06T05:03:56;3.03;;;0.90;;
3549;SDS011;45572;48.804;8.330;2023-08-06T05:06:23;1.77;;;0.90;;
3549;SDS011;45572;48.804;8.330;2023-08-06T05:08:51;1.65;;;0.77;;
3549;SDS011;45572;48.804;8.330;2023-08-06T05:11:19;2.35;;;0.63;;
3549;SDS011;45572;48.804;8.330;2023-08-06T05:13:47;2.58;;;0.80;;
3549;SDS011;45572;48.804;8.330;2023-08-06T05:16:14;2.17;;;0.80;;
3549;SDS011;45572;48.804;8.330;2023-08-06T05:18:43;0.80;;;0.60;;
3549;SDS011;45572;48.804;8.330;2023-08-06T05:21:11;1.00;;;0.47;;
3549;SDS011;45572;48.804;8.330;2023-08-06T05:23:39;1.08;;;0.75;;
3549;SDS011;45572;48.804;8.330;2023-08-06T05:26:07;2.65;;;0.50;;
3549;SDS011;45572;48.804;8.330;2023-08-06T05:28:34;2.85;;;0.70;;
3549;SDS011;45572;48.804;8.330;2023-08-06T05:31:03;1.85;;;0.60;;
3549;SDS011;45572;48.804;8.330;2023-08-06T05:33:31;1.33;;;0.55;;
3549;SDS011;45572;48.804;8.330;2023-08-06T05:36:00;1.88;;;0.65;;
3549;SDS011;45572;48.804;8.330;2023-08-06T05:38:29;0.90;;;0.50;;
3549;SDS011;45572;48.804;8.330;2023-08-06T05:40:57;3.67;;;0.82;;
3549;SDS011;45572;48.804;8.330;2023-08-06T05:43:25;3.33;;;0.60;;
3549;SDS011;45572;48.804;8.330;2023-08-06T05:45:53;1.13;;;0.50;;
3549;SDS011;45572;48.804;8.330;2023-08-06T05:48:20;1.20;;;0.40;;
3549;SDS011;45572;48.804;8.330;2023-08-06T05:50:51;0.60;;;0.40;;
3549;SDS011;45572;48.804;8.330;2023-08-06T05:53:20;0.73;;;0.50;;
3549;SDS011;45572;48.804;8.330;2023-08-06T05:55:47;1.83;;;0.98;;
3549;SDS011;45572;48.804;8.330;2023-08-06T05:58:15;2.25;;;0.55;;
3549;SDS011;45572;48.804;8.330;2023-08-06T06:00:43;0.98;;;0.50;;
3549;SDS011;45572;48.804;8.330;2023-08-06T06:03:12;1.23;;;0.50;;
3549;SDS011;45572;48.804;8.330;2023-08-06T06:05:40;7.47;;;1.00;;
3549;SDS011;45572;48.804;8.330;2023-08-06T06:08:07;2.28;;;0.60;;
3549;SDS011;45572;48.804;8.330;2023-08-06T06:10:36;1.92;;;0.50;;
3549;SDS011;45572;48.804;8.330;2023-08-06T06:13:04;1.20;;;0.60;;
3549;SDS011;45572;48.804;8.330;2023-08-06T06:15:35;0.90;;;0.50;;
3549;SDS011;45572;48.804;8.330;2023-08-06T06:18:04;2.17;;;1.02;;
3549;SDS011;45572;48.804;8.330;2023-08-06T06:20:32;2.45;;;0.70;;
3549;SDS011;45572;48.804;8.330;2023-08-06T06:23:00;1.17;;;0.70;;
3549;SDS011;45572;48.804;8.330;2023-08-06T06:25:27;0.60;;;0.40;;
3549;SDS011;45572;48.804;8.330;2023-08-06T06:27:56;0.70;;;0.40;;
3549;SDS011;45572;48.804;8.330;2023-08-06T06:30:25;0.60;;;0.40;;
3549;SDS011;45572;48.804;8.330;2023-08-06T06:32:53;2.00;;;0.60;;
3549;SDS011;45572;48.804;8.330;2023-08-06T06:35:20;0.95;;;0.43;;
3549;SDS011;45572;48.804;8.330;2023-08-06T06:37:48;1.00;;;0.50;;
3549;SDS011;45572;48.804;8.330;2023-08-06T06:40:16;1.35;;;0.50;;
3549;SDS011;45572;48.804;8.330;2023-08-06T06:42:44;0.70;;;0.40;;
3549;SDS011;45572;48.804;8.330;2023-08-06T06:45:14;2.08;;;0.50;;
3549;SDS011;45572;48.804;8.330;2023-08-06T06:47:42;1.25;;;0.75;;
3549;SDS011;45572;48.804;8.330;2023-08-06T06:50:10;1.45;;;0.60;;
3549;SDS011;45572;48.804;8.330;2023-08-06T06:52:37;0.80;;;0.50;;
3549;SDS011;45572;48.804;8.330;2023-08-06T06:55:05;0.85;;;0.60;;
3549;SDS011;45572;48.804;8.330;2023-08-06T06:57:33;0.80;;;0.50;;
3549;SDS011;45572;48.804;8.330;2023-08-06T07:00:01;0.88;;;0.40;;
3549;SDS011;45572;48.804;8.330;2023-08-06T07:02:33;1.30;;;0.70;;
3549;SDS011;45572;48.804;8.330;2023-08-06T07:05:01;0.60;;;0.32;;
3549;SDS011;45572;48.804;8.330;2023-08-06T07:07:28;2.20;;;0.50;;
3549;SDS011;45572;48.804;8.330;2023-08-06T07:09:56;0.75;;;0.40;;
3549;SDS011;45572;48.804;8.330;2023-08-06T07:12:24;2.13;;;0.60;;
3549;SDS011;45572;48.804;8.330;2023-08-06T07:14:52;1.55;;;0.50;;
3549;SDS011;45572;48.804;8.330;2023-08-06T07:17:19;1.13;;;0.40;;
3549;SDS011;45572;48.804;8.330;2023-08-06T07:19:48;0.60;;;0.40;;
3549;SDS011;45572;48.804;8.330;2023-08-06T07:22:16;0.80;;;0.40;;
3549;SDS011;45572;48.804;8.330;2023-08-06T07:24:44;1.15;;;0.50;;
3549;SDS011;45572;48.804;8.330;2023-08-06T07:27:12;1.52;;;0.40;;
3549;SDS011;45572;48.804;8.330;2023-08-06T07:29:39;1.88;;;0.40;;
3549;SDS011;45572;48.804;8.330;2023-08-06T07:32:07;0.50;;;0.30;;
3549;SDS011;45572;48.804;8.330;2023-08-06T07:34:35;1.23;;;0.40;;
3549;SDS011;45572;48.804;8.330;2023-08-06T07:37:05;0.50;;;0.40;;
3549;SDS011;45572;48.804;8.330;2023-08-06T07:39:33;0.60;;;0.40;;
3549;SDS011;45572;48.804;8.330;2023-08-06T07:42:02;0.60;;;0.40;;
3549;SDS011;45572;48.804;8.330;2023-08-06T07:44:31;0.70;;;0.40;;
3549;SDS011;45572;48.804;8.330;2023-08-06T07:46:59;0.60;;;0.43;;
3549;SDS011;45572;48.804;8.330;2023-08-06T07:49:27;0.60;;;0.40;;
3549;SDS011;45572;48.804;8.330;2023-08-06T07:51:55;0.70;;;0.40;;
3549;SDS011;45572;48.804;8.330;2023-08-06T07:54:24;0.93;;;0.40;;
3549;SDS011;45572;48.804;8.330;2023-08-06T07:56:52;0.60;;;0.40;;
3549;SDS011;45572;48.804;8.330;2023-08-06T07:59:19;1.15;;;0.40;;
3549;SDS011;45572;48.804;8.330;2023-08-06T08:01:49;0.50;;;0.30;;
3549;SDS011;45572;48.804;8.330;2023-08-06T08:04:17;0.60;;;0.40;;
3549;SDS011;45572;48.804;8.330;2023-08-06T08:06:48;2.45;;;0.40;;
3549;SDS011;45572;48.804;8.330;2023-08-06T08:09:16;0.55;;;0.30;;
3549;SDS011;45572;48.804;8.330;2023-08-06T08:11:45;0.60;;;0.40;;
3549;SDS011;45572;48.804;8.330;2023-08-06T08:14:13;0.95;;;0.40;;
3549;SDS011;45572;48.804;8.330;2023-08-06T08:16:41;0.70;;;0.40;;
3549;SDS011;45572;48.804;8.330;2023-08-06T08:19:09;1.15;;;0.40;;
3549;SDS011;45572;48.804;8.330;2023-08-06T08:21:37;0.90;;;0.40;;
3549;SDS011;45572;48.804;8.330;2023-08-06T08:24:05;0.80;;;0.45;;
3549;SDS011;45572;48.804;8.330;2023-08-06T08:26:33;0.80;;;0.40;;
3549;SDS011;45572;48.804;8.330;2023-08-06T08:29:02;1.17;;;0.40;;
3549;SDS011;45572;48.804;8.330;2023-08-06T08:31:29;1.45;;;0.98;;
3549;SDS011;45572;48.804;8.330;2023-08-06T08:33:57;0.70;;;0.40;;
3549;SDS011;45572;48.804;8.330;2023-08-06T08:36:27;1.50;;;0.40;;
3549;SDS011;45572;48.804;8.330;2023-08-06T08:38:54;0.70;;;0.40;;
3549;SDS011;45572;48.804;8.330;2023-08-06T08:41:22;0.50;;;0.40;;
3549;SDS011;45572;48.804;8.330;2023-08-06T08:43:51;1.77;;;0.50;;
3549;SDS011;45572;48.804;8.330;2023-08-06T08:46:20;0.60;;;0.40;;
3549;SDS011;45572;48.804;8.330;2023-08-06T08:48:49;1.00;;;0.40;;
3549;SDS011;45572;48.804;8.330;2023-08-06T08:51:16;0.70;;;0.40;;
3549;SDS011;45572;48.804;8.330;2023-08-06T08:53:46;0.85;;;0.50;;
3549;SDS011;45572;48.804;8.330;2023-08-06T08:56:15;0.90;;;0.40;;
3549;SDS011;45572;48.804;8.330;2023-08-06T08:58:43;4.28;;;0.70;;
3549;SDS011;45572;48.804;8.330;2023-08-06T09:01:12;0.70;;;0.45;;
3549;SDS011;45572;48.804;8.330;2023-08-06T09:03:41;0.80;;;0.70;;
3549;SDS011;45572;48.804;8.330;2023-08-06T09:06:10;2.65;;;0.40;;
3549;SDS011;45572;48.804;8.330;2023-08-06T09:08:41;1.45;;;0.52;;
3549;SDS011;45572;48.804;8.330;2023-08-06T09:11:14;4.40;;;0.60;;
3549;SDS011;45572;48.804;8.330;2023-08-06T09:13:43;0.60;;;0.40;;
3549;SDS011;45572;48.804;8.330;2023-08-06T09:16:11;0.70;;;0.40;;
3549;SDS011;45572;48.804;8.330;2023-08-06T09:18:39;2.00;;;0.50;;
3549;SDS011;45572;48.804;8.330;2023-08-06T09:21:08;0.95;;;0.40;;
3549;SDS011;45572;48.804;8.330;2023-08-06T09:23:41;0.60;;;0.40;;
3549;SDS011;45572;48.804;8.330;2023-08-06T09:26:11;0.60;;;0.40;;
3549;SDS011;45572;48.804;8.330;2023-08-06T09:28:42;0.70;;;0.40;;
3549;SDS011;45572;48.804;8.330;2023-08-06T09:31:10;0.80;;;0.40;;
3549;SDS011;45572;48.804;8.330;2023-08-06T09:33:38;1.70;;;0.40;;
3549;SDS011;45572;48.804;8.330;2023-08-06T09:36:08;0.90;;;0.50;;
3549;SDS011;45572;48.804;8.330;2023-08-06T09:38:38;0.88;;;0.40;;
3549;SDS011;45572;48.804;8.330;2023-08-06T09:41:07;0.77;;;0.40;;
3549;SDS011;45572;48.804;8.330;2023-08-06T09:43:40;0.70;;;0.40;;
3549;SDS011;45572;48.804;8.330;2023-08-06T09:46:12;0.60;;;0.40;;
3549;SDS011;45572;48.804;8.330;2023-08-06T09:48:44;0.82;;;0.40;;
3549;SDS011;45572;48.804;8.330;2023-08-06T09:51:14;1.10;;;0.60;;
3549;SDS011;45572;48.804;8.330;2023-08-06T09:53:42;1.00;;;0.60;;
3549;SDS011;45572;48.804;8.330;2023-08-06T09:56:10;0.60;;;0.40;;
3549;SDS011;45572;48.804;8.330;2023-08-06T09:58:38;1.55;;;0.70;;
3549;SDS011;45572;48.804;8.330;2023-08-06T10:01:07;2.70;;;0.57;;
3549;SDS011;45572;48.804;8.330;2023-08-06T10:03:36;0.93;;;0.60;;
3549;SDS011;45572;48.804;8.330;2023-08-06T10:06:05;1.10;;;0.70;;
3549;SDS011;45572;48.804;8.330;2023-08-06T10:08:37;1.05;;;0.60;;
3549;SDS011;45572;48.804;8.330;2023-08-06T10:11:06;0.85;;;0.50;;
3549;SDS011;45572;48.804;8.330;2023-08-06T10:13:35;1.65;;;0.60;;
3549;SDS011;45572;48.804;8.330;2023-08-06T10:16:03;2.05;;;0.70;;
3549;SDS011;45572;48.804;8.330;2023-08-06T10:18:32;1.85;;;0.68;;
3549;SDS011;45572;48.804;8.330;2023-08-06T10:21:02;1.70;;;0.65;;
3549;SDS011;45572;48.804;8.330;2023-08-06T10:23:32;1.20;;;0.70;;
3549;SDS011;45572;48.804;8.330;2023-08-06T10:26:02;0.70;;;0.50;;
3549;SDS011;45572;48.804;8.330;2023-08-06T10:28:34;1.48;;;0.80;;
3549;SDS011;45572;48.804;8.330;2023-08-06T10:31:03;4.10;;;1.00;;
3549;SDS011;45572;48.804;8.330;2023-08-06T10:36:14;2.58;;;1.08;;
3549;SDS011;45572;48.804;8.330;2023-08-06T10:38:44;1.60;;;1.05;;
3549;SDS011;45572;48.804;8.330;2023-08-06T10:41:21;1.80;;;1.17;;
3549;SDS011;45572;48.804;8.330;2023-08-06T10:43:50;7.78;;;2.47;;
3549;SDS011;45572;48.804;8.330;2023-08-06T10:46:22;2.15;;;1.35;;
3549;SDS011;45572;48.804;8.330;2023-08-06T10:48:51;3.40;;;1.30;;
3549;SDS011;45572;48.804;8.330;2023-08-06T10:51:19;2.10;;;1.30;;
3549;SDS011;45572;48.804;8.330;2023-08-06T10:53:48;2.45;;;1.17;;
3549;SDS011;45572;48.804;8.330;2023-08-06T10:56:18;1.85;;;1.25;;
3549;SDS011;45572;48.804;8.330;2023-08-06T10:58:48;1.80;;;1.20;;
3549;SDS011;45572;48.804;8.330;2023-08-06T11:01:17;3.38;;;1.17;;
3549;SDS011;45572;48.804;8.330;2023-08-06T11:03:46;2.35;;;1.30;;
3549;SDS011;45572;48.804;8.330;2023-08-06T11:06:17;2.08;;;1.27;;
3549;SDS011;45572;48.804;8.330;2023-08-06T11:08:47;5.60;;;1.55;;
3549;SDS011;45572;48.804;8.330;2023-08-06T11:11:16;2.20;;;1.40;;
3549;SDS011;45572;48.804;8.330;2023-08-06T11:13:46;4.35;;;1.20;;
3549;SDS011;45572;48.804;8.330;2023-08-06T11:16:15;2.85;;;1.70;;
3549;SDS011;45572;48.804;8.330;2023-08-06T11:18:45;3.88;;;2.00;;
3549;SDS011;45572;48.804;8.330;2023-08-06T11:21:13;2.63;;;1.50;;
3549;SDS011;45572;48.804;8.330;2023-08-06T11:23:41;2.97;;;1.40;;
3549;SDS011;45572;48.804;8.330;2023-08-06T11:26:09;4.68;;;1.40;;
3549;SDS011;45572;48.804;8.330;2023-08-06T11:28:38;3.97;;;1.92;;
3549;SDS011;45572;48.804;8.330;2023-08-06T11:31:07;5.70;;;1.58;;
3549;SDS011;45572;48.804;8.330;2023-08-06T11:33:46;2.72;;;1.98;;
3549;SDS011;45572;48.804;8.330;2023-08-06T11:36:13;2.78;;;1.77;;
3549;SDS011;45572;48.804;8.330;2023-08-06T11:38:41;2.85;;;1.75;;
3549;SDS011;45572;48.804;8.330;2023-08-06T11:41:09;4.15;;;1.38;;
3549;SDS011;45572;48.804;8.330;2023-08-06T11:43:40;3.30;;;2.05;;
3549;SDS011;45572;48.804;8.330;2023-08-06T11:46:08;5.68;;;1.65;;
3549;SDS011;45572;48.804;8.330;2023-08-06T11:48:50;3.73;;;1.73;;
3549;SDS011;45572;48.804;8.330;2023-08-06T11:51:18;5.70;;;1.52;;
3549;SDS011;45572;48.804;8.330;2023-08-06T11:53:49;2.72;;;1.42;;
3549;SDS011;45572;48.804;8.330;2023-08-06T11:56:17;5.70;;;1.80;;
3549;SDS011;45572;48.804;8.330;2023-08-06T11:58:46;2.42;;;1.30;;
3549;SDS011;45572;48.804;8.330;2023-08-06T12:01:14;3.43;;;1.07;;
3549;SDS011;45572;48.804;8.330;2023-08-06T12:03:42;2.05;;;1.00;;
3549;SDS011;45572;48.804;8.330;2023-08-06T12:06:10;1.67;;;1.10;;
3549;SDS011;45572;48.804;8.330;2023-08-06T12:08:38;3.87;;;1.13;;
3549;SDS011;45572;48.804;8.330;2023-08-06T12:11:07;1.97;;;1.10;;
3549;SDS011;45572;48.804;8.330;2023-08-06T12:13:36;2.42;;;1.42;;
3549;SDS011;45572;48.804;8.330;2023-08-06T12:16:05;1.77;;;0.90;;
3549;SDS011;45572;48.804;8.330;2023-08-06T12:18:33;2.03;;;1.10;;
3549;SDS011;45572;48.804;8.330;2023-08-06T12:21:00;1.60;;;0.90;;
3549;SDS011;45572;48.804;8.330;2023-08-06T12:23:29;2.93;;;1.23;;
3549;SDS011;45572;48.804;8.330;2023-08-06T12:25:59;1.03;;;0.57;;
3549;SDS011;45572;48.804;8.330;2023-08-06T12:28:27;1.40;;;1.07;;
3549;SDS011;45572;48.804;8.330;2023-08-06T12:30:54;1.87;;;0.90;;
3549;SDS011;45572;48.804;8.330;2023-08-06T12:33:24;1.67;;;0.70;;
3549;SDS011;45572;48.804;8.330;2023-08-06T12:35:51;0.90;;;0.60;;
3549;SDS011;45572;48.804;8.330;2023-08-06T12:38:21;1.27;;;0.60;;
3549;SDS011;45572;48.804;8.330;2023-08-06T12:40:48;2.40;;;0.80;;
3549;SDS011;45572;48.804;8.330;2023-08-06T12:43:16;3.17;;;0.83;;
3549;SDS011;45572;48.804;8.330;2023-08-06T12:45:44;1.63;;;0.77;;
3549;SDS011;45572;48.804;8.330;2023-08-06T12:48:12;1.20;;;0.70;;
3549;SDS011;45572;48.804;8.330;2023-08-06T12:50:41;2.30;;;0.70;;
3549;SDS011;45572;48.804;8.330;2023-08-06T12:53:09;0.90;;;0.70;;
3549;SDS011;45572;48.804;8.330;2023-08-06T12:55:37;1.57;;;0.60;;
3549;SDS011;45572;48.804;8.330;2023-08-06T12:58:06;1.10;;;0.67;;
3549;SDS011;45572;48.804;8.330;2023-08-06T13:00:34;1.83;;;0.73;;
3549;SDS011;45572;48.804;8.330;2023-08-06T13:03:02;2.20;;;0.87;;
3549;SDS011;45572;48.804;8.330;2023-08-06T13:05:30;1.30;;;0.70;;
3549;SDS011;45572;48.804;8.330;2023-08-06T13:08:00;1.90;;;0.60;;
3549;SDS011;45572;48.804;8.330;2023-08-06T13:10:27;0.90;;;0.50;;
3549;SDS011;45572;48.804;8.330;2023-08-06T13:12:57;1.20;;;0.90;;
3549;SDS011;45572;48.804;8.330;2023-08-06T13:15:25;1.50;;;0.90;;
3549;SDS011;45572;48.804;8.330;2023-08-06T13:17:52;1.00;;;0.60;;
3549;SDS011;45572;48.804;8.330;2023-08-06T13:20:20;0.80;;;0.50;;
3549;SDS011;45572;48.804;8.330;2023-08-06T13:22:49;1.70;;;0.67;;
3549;SDS011;45572;48.804;8.330;2023-08-06T13:25:20;1.40;;;0.80;;
3549;SDS011;45572;48.804;8.330;2023-08-06T13:27:49;1.20;;;0.70;;
3549;SDS011;45572;48.804;8.330;2023-08-06T13:30:17;1.00;;;0.70;;
3549;SDS011;45572;48.804;8.330;2023-08-06T13:32:45;1.70;;;0.80;;
3549;SDS011;45572;48.804;8.330;2023-08-06T13:35:13;1.90;;;0.90;;
3549;SDS011;45572;48.804;8.330;2023-08-06T13:37:40;2.20;;;0.77;;
3549;SDS011;45572;48.804;8.330;2023-08-06T13:40:11;1.10;;;0.90;;
3549;SDS011;45572;48.804;8.330;2023-08-06T13:42:40;1.00;;;0.60;;
3549;SDS011;45572;48.804;8.330;2023-08-06T13:45:08;1.40;;;0.60;;
3549;SDS011;45572;48.804;8.330;2023-08-06T13:47:37;3.30;;;0.70;;
3549;SDS011;45572;48.804;8.330;2023-08-06T13:50:06;2.60;;;0.70;;
3549;SDS011;45572;48.804;8.330;2023-08-06T13:52:33;1.30;;;0.60;;
3549;SDS011;45572;48.804;8.330;2023-08-06T13:55:02;3.83;;;0.70;;
3549;SDS011;45572;48.804;8.330;2023-08-06T13:57:30;2.70;;;0.70;;
3549;SDS011;45572;48.804;8.330;2023-08-06T13:59:59;2.20;;;0.90;;
3549;SDS011;45572;48.804;8.330;2023-08-06T14:03:01;1.17;;;0.53;;
3549;SDS011;45572;48.804;8.330;2023-08-06T14:05:30;1.17;;;0.50;;
3549;SDS011;45572;48.804;8.330;2023-08-06T14:07:57;1.20;;;0.60;;
3549;SDS011;45572;48.804;8.330;2023-08-06T14:10:25;2.03;;;0.70;;
3549;SDS011;45572;48.804;8.330;2023-08-06T14:12:53;1.20;;;0.87;;
3549;SDS011;45572;48.804;8.330;2023-08-06T14:15:35;1.10;;;1.00;;
3549;SDS011;45572;48.804;8.330;2023-08-06T14:18:07;1.63;;;0.90;;
3549;SDS011;45572;48.804;8.330;2023-08-06T14:20:35;3.37;;;0.80;;
3549;SDS011;45572;48.804;8.330;2023-08-06T14:23:03;1.00;;;0.60;;
3549;SDS011;45572;48.804;8.330;2023-08-06T14:25:30;1.87;;;0.70;;
3549;SDS011;45572;48.804;8.330;2023-08-06T14:27:58;2.50;;;0.63;;
3549;SDS011;45572;48.804;8.330;2023-08-06T14:30:26;1.33;;;0.60;;
3549;SDS011;45572;48.804;8.330;2023-08-06T14:32:54;2.27;;;0.60;;
3549;SDS011;45572;48.804;8.330;2023-08-06T14:35:23;1.50;;;0.70;;
3549;SDS011;45572;48.804;8.330;2023-08-06T14:37:51;1.07;;;0.57;;
3549;SDS011;45572;48.804;8.330;2023-08-06T14:40:18;1.00;;;0.57;;
3549;SDS011;45572;48.804;8.330;2023-08-06T14:42:46;1.97;;;0.90;;
3549;SDS011;45572;48.804;8.330;2023-08-06T14:45:14;2.07;;;0.73;;
3549;SDS011;45572;48.804;8.330;2023-08-06T14:47:42;1.53;;;0.73;;
3549;SDS011;45572;48.804;8.330;2023-08-06T14:50:09;0.90;;;0.60;;
3549;SDS011;45572;48.804;8.330;2023-08-06T14:52:38;1.57;;;0.73;;
3549;SDS011;45572;48.804;8.330;2023-08-06T14:55:06;0.90;;;0.60;;
3549;SDS011;45572;48.804;8.330;2023-08-06T14:57:35;1.40;;;0.90;;
3549;SDS011;45572;48.804;8.330;2023-08-06T15:00:02;1.30;;;0.63;;
3549;SDS011;45572;48.804;8.330;2023-08-06T15:02:31;1.30;;;0.70;;
3549;SDS011;45572;48.804;8.330;2023-08-06T15:04:59;1.00;;;0.90;;
3549;SDS011;45572;48.804;8.330;2023-08-06T15:07:27;1.43;;;0.60;;
3549;SDS011;45572;48.804;8.330;2023-08-06T15:09:58;2.70;;;0.60;;
3549;SDS011;45572;48.804;8.330;2023-08-06T15:12:46;1.00;;;0.60;;